sensor_id;sensor_type;location;lat;lon;timestamp;pressure;altitude;pressure_sealevel;temperature
11849;BMP180;5983;49.966;8.052;2022-12-29T00:01:41;99801.00;;;10.70
11849;BMP180;5983;49.966;8.052;2022-12-29T00:04:13;99787.00;;;10.80
11849;BMP180;5983;49.966;8.052;2022-12-29T00:06:41;99784.00;;;10.80
11849;BMP180;5983;49.966;8.052;2022-12-29T00:09:11;99778.00;;;10.80
11849;BMP180;5983;49.966;8.052;2022-12-29T00:11:38;99794.00;;;10.90
11849;BMP180;5983;49.966;8.052;2022-12-29T00:14:05;99787.00;;;10.90
11849;BMP180;5983;49.966;8.052;2022-12-29T00:16:50;99780.00;;;11.00
11849;BMP180;5983;49.966;8.052;2022-12-29T00:19:17;99784.00;;;11.00
11849;BMP180;5983;49.966;8.052;2022-12-29T00:22:02;99776.00;;;11.00
11849;BMP180;5983;49.966;8.052;2022-12-29T00:24:48;99792.00;;;11.00
11849;BMP180;5983;49.966;8.052;2022-12-29T00:27:32;99776.00;;;11.00
11849;BMP180;5983;49.966;8.052;2022-12-29T00:30:20;99783.00;;;11.00
11849;BMP180;5983;49.966;8.052;2022-12-29T00:33:09;99782.00;;;11.00
11849;BMP180;5983;49.966;8.052;2022-12-29T00:35:59;99780.00;;;11.00
11849;BMP180;5983;49.966;8.052;2022-12-29T00:38:29;99787.00;;;10.90
11849;BMP180;5983;49.966;8.052;2022-12-29T00:41:16;99783.00;;;10.90
11849;BMP180;5983;49.966;8.052;2022-12-29T00:44:00;99768.00;;;10.90
11849;BMP180;5983;49.966;8.052;2022-12-29T00:46:37;99778.00;;;10.90
11849;BMP180;5983;49.966;8.052;2022-12-29T00:49:06;99784.00;;;10.90
11849;BMP180;5983;49.966;8.052;2022-12-29T00:51:51;99767.00;;;10.90
11849;BMP180;5983;49.966;8.052;2022-12-29T00:54:18;99770.00;;;10.90
11849;BMP180;5983;49.966;8.052;2022-12-29T00:56:48;99773.00;;;10.90
11849;BMP180;5983;49.966;8.052;2022-12-29T00:59:16;99776.00;;;10.90
11849;BMP180;5983;49.966;8.052;2022-12-29T01:01:44;99769.00;;;10.90
11849;BMP180;5983;49.966;8.052;2022-12-29T01:04:12;99772.00;;;10.80
11849;BMP180;5983;49.966;8.052;2022-12-29T01:06:41;99770.00;;;10.90
11849;BMP180;5983;49.966;8.052;2022-12-29T01:09:09;99774.00;;;10.90
11849;BMP180;5983;49.966;8.052;2022-12-29T01:11:55;99765.00;;;10.80
11849;BMP180;5983;49.966;8.052;2022-12-29T01:14:23;99757.00;;;10.80
11849;BMP180;5983;49.966;8.052;2022-12-29T01:16:51;99744.00;;;10.70
11849;BMP180;5983;49.966;8.052;2022-12-29T01:19:19;99754.00;;;10.70
11849;BMP180;5983;49.966;8.052;2022-12-29T01:21:46;99763.00;;;10.70
11849;BMP180;5983;49.966;8.052;2022-12-29T01:24:14;99756.00;;;10.70
11849;BMP180;5983;49.966;8.052;2022-12-29T01:26:41;99747.00;;;10.70
11849;BMP180;5983;49.966;8.052;2022-12-29T01:29:09;99749.00;;;10.70
11849;BMP180;5983;49.966;8.052;2022-12-29T01:31:36;99759.00;;;10.70
11849;BMP180;5983;49.966;8.052;2022-12-29T01:34:04;99753.00;;;10.70
11849;BMP180;5983;49.966;8.052;2022-12-29T01:36:31;99757.00;;;10.70
11849;BMP180;5983;49.966;8.052;2022-12-29T01:38:58;99772.00;;;10.70
11849;BMP180;5983;49.966;8.052;2022-12-29T01:41:26;99760.00;;;10.70
11849;BMP180;5983;49.966;8.052;2022-12-29T01:43:59;99766.00;;;10.70
11849;BMP180;5983;49.966;8.052;2022-12-29T01:46:32;99756.00;;;10.60
11849;BMP180;5983;49.966;8.052;2022-12-29T01:49:11;99760.00;;;10.60
11849;BMP180;5983;49.966;8.052;2022-12-29T01:51:45;99766.00;;;10.70
11849;BMP180;5983;49.966;8.052;2022-12-29T01:54:19;99747.00;;;10.60
11849;BMP180;5983;49.966;8.052;2022-12-29T01:56:51;99752.00;;;10.70
11849;BMP180;5983;49.966;8.052;2022-12-29T01:59:24;99754.00;;;10.60
11849;BMP180;5983;49.966;8.052;2022-12-29T02:01:54;99752.00;;;10.60
11849;BMP180;5983;49.966;8.052;2022-12-29T02:04:24;99750.00;;;10.60
11849;BMP180;5983;49.966;8.052;2022-12-29T02:06:58;99748.00;;;10.60
11849;BMP180;5983;49.966;8.052;2022-12-29T02:09:27;99740.00;;;10.60
11849;BMP180;5983;49.966;8.052;2022-12-29T02:11:54;99732.00;;;10.50
11849;BMP180;5983;49.966;8.052;2022-12-29T02:14:21;99728.00;;;10.50
11849;BMP180;5983;49.966;8.052;2022-12-29T02:17:08;99716.00;;;10.50
11849;BMP180;5983;49.966;8.052;2022-12-29T02:23:13;99712.00;;;10.40
11849;BMP180;5983;49.966;8.052;2022-12-29T02:26:16;99718.00;;;10.40
11849;BMP180;5983;49.966;8.052;2022-12-29T02:29:19;99715.00;;;10.40
11849;BMP180;5983;49.966;8.052;2022-12-29T02:32:01;99724.00;;;10.40
11849;BMP180;5983;49.966;8.052;2022-12-29T02:34:43;99710.00;;;10.40
11849;BMP180;5983;49.966;8.052;2022-12-29T02:37:25;99705.00;;;10.40
11849;BMP180;5983;49.966;8.052;2022-12-29T02:40:04;99712.00;;;10.40
11849;BMP180;5983;49.966;8.052;2022-12-29T02:42:41;99704.00;;;10.40
11849;BMP180;5983;49.966;8.052;2022-12-29T02:45:20;99698.00;;;10.40
11849;BMP180;5983;49.966;8.052;2022-12-29T02:47:56;99689.00;;;10.50
11849;BMP180;5983;49.966;8.052;2022-12-29T02:50:32;99682.00;;;10.50
11849;BMP180;5983;49.966;8.052;2022-12-29T02:53:04;99682.00;;;10.50
11849;BMP180;5983;49.966;8.052;2022-12-29T02:55:32;99675.00;;;10.50
11849;BMP180;5983;49.966;8.052;2022-12-29T02:58:18;99671.00;;;10.50
11849;BMP180;5983;49.966;8.052;2022-12-29T03:01:11;99663.00;;;10.50
11849;BMP180;5983;49.966;8.052;2022-12-29T03:03:56;99659.00;;;10.60
11849;BMP180;5983;49.966;8.052;2022-12-29T03:06:40;99662.00;;;10.60
11849;BMP180;5983;49.966;8.052;2022-12-29T03:09:20;99661.00;;;10.70
11849;BMP180;5983;49.966;8.052;2022-12-29T03:11:58;99659.00;;;10.70
11849;BMP180;5983;49.966;8.052;2022-12-29T03:14:44;99650.00;;;10.70
11849;BMP180;5983;49.966;8.052;2022-12-29T03:17:40;99651.00;;;10.70
11849;BMP180;5983;49.966;8.052;2022-12-29T03:20:19;99659.00;;;10.70
11849;BMP180;5983;49.966;8.052;2022-12-29T03:22:51;99653.00;;;10.70
11849;BMP180;5983;49.966;8.052;2022-12-29T03:25:28;99656.00;;;10.70
11849;BMP180;5983;49.966;8.052;2022-12-29T03:28:00;99643.00;;;10.80
11849;BMP180;5983;49.966;8.052;2022-12-29T03:30:31;99648.00;;;10.80
11849;BMP180;5983;49.966;8.052;2022-12-29T03:33:03;99657.00;;;10.80
11849;BMP180;5983;49.966;8.052;2022-12-29T03:35:37;99649.00;;;10.80
11849;BMP180;5983;49.966;8.052;2022-12-29T03:38:12;99658.00;;;10.80
11849;BMP180;5983;49.966;8.052;2022-12-29T03:40:44;99648.00;;;10.90
11849;BMP180;5983;49.966;8.052;2022-12-29T03:43:13;99652.00;;;10.90
11849;BMP180;5983;49.966;8.052;2022-12-29T03:45:40;99642.00;;;10.90
11849;BMP180;5983;49.966;8.052;2022-12-29T03:48:07;99636.00;;;10.90
11849;BMP180;5983;49.966;8.052;2022-12-29T03:50:35;99626.00;;;11.00
11849;BMP180;5983;49.966;8.052;2022-12-29T03:53:02;99630.00;;;11.00
11849;BMP180;5983;49.966;8.052;2022-12-29T03:55:29;99625.00;;;11.10
11849;BMP180;5983;49.966;8.052;2022-12-29T03:57:56;99631.00;;;11.10
11849;BMP180;5983;49.966;8.052;2022-12-29T04:00:23;99636.00;;;11.10
11849;BMP180;5983;49.966;8.052;2022-12-29T04:02:50;99637.00;;;11.20
11849;BMP180;5983;49.966;8.052;2022-12-29T04:05:17;99649.00;;;11.10
11849;BMP180;5983;49.966;8.052;2022-12-29T04:07:46;99636.00;;;11.10
11849;BMP180;5983;49.966;8.052;2022-12-29T04:10:13;99641.00;;;11.10
11849;BMP180;5983;49.966;8.052;2022-12-29T04:12:40;99647.00;;;11.10
11849;BMP180;5983;49.966;8.052;2022-12-29T04:15:09;99642.00;;;11.20
11849;BMP180;5983;49.966;8.052;2022-12-29T04:17:36;99647.00;;;11.20
11849;BMP180;5983;49.966;8.052;2022-12-29T04:20:04;99647.00;;;11.20
11849;BMP180;5983;49.966;8.052;2022-12-29T04:22:59;99631.00;;;11.30
11849;BMP180;5983;49.966;8.052;2022-12-29T04:25:26;99643.00;;;11.30
11849;BMP180;5983;49.966;8.052;2022-12-29T04:27:53;99627.00;;;11.30
11849;BMP180;5983;49.966;8.052;2022-12-29T04:30:20;99626.00;;;11.30
11849;BMP180;5983;49.966;8.052;2022-12-29T04:32:47;99637.00;;;11.30
11849;BMP180;5983;49.966;8.052;2022-12-29T04:35:14;99624.00;;;11.30
11849;BMP180;5983;49.966;8.052;2022-12-29T04:37:41;99613.00;;;11.30
11849;BMP180;5983;49.966;8.052;2022-12-29T04:40:11;99630.00;;;11.40
11849;BMP180;5983;49.966;8.052;2022-12-29T04:42:38;99641.00;;;11.40
11849;BMP180;5983;49.966;8.052;2022-12-29T04:45:07;99623.00;;;11.40
11849;BMP180;5983;49.966;8.052;2022-12-29T04:47:34;99634.00;;;11.40
11849;BMP180;5983;49.966;8.052;2022-12-29T04:50:01;99627.00;;;11.50
11849;BMP180;5983;49.966;8.052;2022-12-29T04:52:28;99626.00;;;11.50
11849;BMP180;5983;49.966;8.052;2022-12-29T04:54:55;99631.00;;;11.40
11849;BMP180;5983;49.966;8.052;2022-12-29T04:57:23;99633.00;;;11.40
11849;BMP180;5983;49.966;8.052;2022-12-29T04:59:50;99641.00;;;11.50
11849;BMP180;5983;49.966;8.052;2022-12-29T05:02:17;99636.00;;;11.40
11849;BMP180;5983;49.966;8.052;2022-12-29T05:04:44;99641.00;;;11.40
11849;BMP180;5983;49.966;8.052;2022-12-29T05:07:12;99640.00;;;11.40
11849;BMP180;5983;49.966;8.052;2022-12-29T05:09:39;99645.00;;;11.20
11849;BMP180;5983;49.966;8.052;2022-12-29T05:12:07;99641.00;;;11.10
11849;BMP180;5983;49.966;8.052;2022-12-29T05:14:35;99639.00;;;11.10
11849;BMP180;5983;49.966;8.052;2022-12-29T05:17:02;99631.00;;;11.00
11849;BMP180;5983;49.966;8.052;2022-12-29T05:19:29;99636.00;;;11.00
11849;BMP180;5983;49.966;8.052;2022-12-29T05:21:57;99631.00;;;11.00
11849;BMP180;5983;49.966;8.052;2022-12-29T05:24:24;99640.00;;;11.00
11849;BMP180;5983;49.966;8.052;2022-12-29T05:26:51;99632.00;;;10.90
11849;BMP180;5983;49.966;8.052;2022-12-29T05:29:18;99634.00;;;10.90
11849;BMP180;5983;49.966;8.052;2022-12-29T05:31:46;99635.00;;;11.00
11849;BMP180;5983;49.966;8.052;2022-12-29T05:34:13;99620.00;;;11.00
11849;BMP180;5983;49.966;8.052;2022-12-29T05:36:40;99629.00;;;11.00
11849;BMP180;5983;49.966;8.052;2022-12-29T05:39:07;99623.00;;;11.00
11849;BMP180;5983;49.966;8.052;2022-12-29T05:41:35;99614.00;;;11.10
11849;BMP180;5983;49.966;8.052;2022-12-29T05:44:02;99618.00;;;11.10
11849;BMP180;5983;49.966;8.052;2022-12-29T05:46:29;99616.00;;;11.10
11849;BMP180;5983;49.966;8.052;2022-12-29T05:48:58;99625.00;;;11.10
11849;BMP180;5983;49.966;8.052;2022-12-29T05:51:25;99619.00;;;11.10
11849;BMP180;5983;49.966;8.052;2022-12-29T05:53:52;99626.00;;;11.10
11849;BMP180;5983;49.966;8.052;2022-12-29T05:56:19;99626.00;;;11.10
11849;BMP180;5983;49.966;8.052;2022-12-29T05:58:46;99626.00;;;11.10
11849;BMP180;5983;49.966;8.052;2022-12-29T06:01:13;99630.00;;;11.10
11849;BMP180;5983;49.966;8.052;2022-12-29T06:03:40;99631.00;;;11.20
11849;BMP180;5983;49.966;8.052;2022-12-29T06:06:08;99629.00;;;11.20
11849;BMP180;5983;49.966;8.052;2022-12-29T06:08:35;99622.00;;;11.30
11849;BMP180;5983;49.966;8.052;2022-12-29T06:11:02;99622.00;;;11.30
11849;BMP180;5983;49.966;8.052;2022-12-29T06:13:29;99631.00;;;11.30
11849;BMP180;5983;49.966;8.052;2022-12-29T06:15:56;99626.00;;;11.40
11849;BMP180;5983;49.966;8.052;2022-12-29T06:18:23;99633.00;;;11.40
11849;BMP180;5983;49.966;8.052;2022-12-29T06:20:50;99644.00;;;11.50
11849;BMP180;5983;49.966;8.052;2022-12-29T06:23:18;99635.00;;;11.50
11849;BMP180;5983;49.966;8.052;2022-12-29T06:25:47;99635.00;;;11.50
11849;BMP180;5983;49.966;8.052;2022-12-29T06:28:14;99647.00;;;11.50
11849;BMP180;5983;49.966;8.052;2022-12-29T06:30:43;99649.00;;;11.40
11849;BMP180;5983;49.966;8.052;2022-12-29T06:33:11;99642.00;;;11.40
11849;BMP180;5983;49.966;8.052;2022-12-29T06:35:38;99643.00;;;11.50
11849;BMP180;5983;49.966;8.052;2022-12-29T06:38:05;99638.00;;;11.40
11849;BMP180;5983;49.966;8.052;2022-12-29T06:40:33;99639.00;;;11.40
11849;BMP180;5983;49.966;8.052;2022-12-29T06:43:00;99634.00;;;11.40
11849;BMP180;5983;49.966;8.052;2022-12-29T06:45:27;99625.00;;;11.40
11849;BMP180;5983;49.966;8.052;2022-12-29T06:47:54;99634.00;;;11.40
11849;BMP180;5983;49.966;8.052;2022-12-29T06:50:21;99627.00;;;11.40
11849;BMP180;5983;49.966;8.052;2022-12-29T06:52:48;99636.00;;;11.40
11849;BMP180;5983;49.966;8.052;2022-12-29T06:55:15;99624.00;;;11.40
11849;BMP180;5983;49.966;8.052;2022-12-29T06:57:44;99619.00;;;11.40
11849;BMP180;5983;49.966;8.052;2022-12-29T07:00:12;99618.00;;;11.40
11849;BMP180;5983;49.966;8.052;2022-12-29T07:02:39;99616.00;;;11.40
11849;BMP180;5983;49.966;8.052;2022-12-29T07:05:07;99624.00;;;11.40
11849;BMP180;5983;49.966;8.052;2022-12-29T07:07:35;99625.00;;;11.50
11849;BMP180;5983;49.966;8.052;2022-12-29T07:10:03;99626.00;;;11.50
11849;BMP180;5983;49.966;8.052;2022-12-29T07:12:30;99630.00;;;11.50
11849;BMP180;5983;49.966;8.052;2022-12-29T07:14:58;99620.00;;;11.50
11849;BMP180;5983;49.966;8.052;2022-12-29T07:17:25;99631.00;;;11.50
11849;BMP180;5983;49.966;8.052;2022-12-29T07:19:52;99625.00;;;11.50
11849;BMP180;5983;49.966;8.052;2022-12-29T07:22:19;99635.00;;;11.60
11849;BMP180;5983;49.966;8.052;2022-12-29T07:24:46;99635.00;;;11.60
11849;BMP180;5983;49.966;8.052;2022-12-29T07:27:13;99648.00;;;11.60
11849;BMP180;5983;49.966;8.052;2022-12-29T07:29:40;99653.00;;;11.60
11849;BMP180;5983;49.966;8.052;2022-12-29T07:32:09;99657.00;;;11.70
11849;BMP180;5983;49.966;8.052;2022-12-29T07:34:35;99665.00;;;11.70
11849;BMP180;5983;49.966;8.052;2022-12-29T07:37:02;99661.00;;;11.70
11849;BMP180;5983;49.966;8.052;2022-12-29T07:39:29;99659.00;;;11.70
11849;BMP180;5983;49.966;8.052;2022-12-29T07:41:56;99668.00;;;11.70
11849;BMP180;5983;49.966;8.052;2022-12-29T07:44:23;99681.00;;;11.60
11849;BMP180;5983;49.966;8.052;2022-12-29T07:46:50;99675.00;;;11.70
11849;BMP180;5983;49.966;8.052;2022-12-29T07:49:18;99677.00;;;11.70
11849;BMP180;5983;49.966;8.052;2022-12-29T07:51:45;99660.00;;;11.70
11849;BMP180;5983;49.966;8.052;2022-12-29T07:54:12;99664.00;;;11.60
11849;BMP180;5983;49.966;8.052;2022-12-29T07:56:40;99668.00;;;11.60
11849;BMP180;5983;49.966;8.052;2022-12-29T07:59:07;99678.00;;;11.60
11849;BMP180;5983;49.966;8.052;2022-12-29T08:01:34;99664.00;;;11.60
11849;BMP180;5983;49.966;8.052;2022-12-29T08:04:00;99681.00;;;11.60
11849;BMP180;5983;49.966;8.052;2022-12-29T08:06:29;99678.00;;;11.60
11849;BMP180;5983;49.966;8.052;2022-12-29T08:09:00;99692.00;;;11.60
11849;BMP180;5983;49.966;8.052;2022-12-29T08:11:27;99695.00;;;11.50
11849;BMP180;5983;49.966;8.052;2022-12-29T08:13:54;99704.00;;;11.50
11849;BMP180;5983;49.966;8.052;2022-12-29T08:16:21;99703.00;;;11.50
11849;BMP180;5983;49.966;8.052;2022-12-29T08:18:48;99704.00;;;11.50
11849;BMP180;5983;49.966;8.052;2022-12-29T08:21:15;99709.00;;;11.50
11849;BMP180;5983;49.966;8.052;2022-12-29T08:23:43;99714.00;;;11.50
11849;BMP180;5983;49.966;8.052;2022-12-29T08:26:10;99707.00;;;11.40
11849;BMP180;5983;49.966;8.052;2022-12-29T08:28:37;99720.00;;;11.40
11849;BMP180;5983;49.966;8.052;2022-12-29T08:31:05;99716.00;;;11.40
11849;BMP180;5983;49.966;8.052;2022-12-29T08:33:32;99715.00;;;11.40
11849;BMP180;5983;49.966;8.052;2022-12-29T08:36:00;99729.00;;;11.40
11849;BMP180;5983;49.966;8.052;2022-12-29T08:38:27;99728.00;;;11.30
11849;BMP180;5983;49.966;8.052;2022-12-29T08:40:57;99726.00;;;11.30
11849;BMP180;5983;49.966;8.052;2022-12-29T08:43:25;99736.00;;;11.20
11849;BMP180;5983;49.966;8.052;2022-12-29T08:45:52;99730.00;;;11.20
11849;BMP180;5983;49.966;8.052;2022-12-29T08:48:19;99722.00;;;11.10
11849;BMP180;5983;49.966;8.052;2022-12-29T08:50:48;99725.00;;;11.10
11849;BMP180;5983;49.966;8.052;2022-12-29T08:53:16;99726.00;;;11.20
11849;BMP180;5983;49.966;8.052;2022-12-29T08:55:45;99733.00;;;11.20
11849;BMP180;5983;49.966;8.052;2022-12-29T08:58:13;99726.00;;;11.10
11849;BMP180;5983;49.966;8.052;2022-12-29T09:00:42;99729.00;;;11.10
11849;BMP180;5983;49.966;8.052;2022-12-29T09:03:09;99730.00;;;11.10
11849;BMP180;5983;49.966;8.052;2022-12-29T09:05:38;99725.00;;;11.10
11849;BMP180;5983;49.966;8.052;2022-12-29T09:08:07;99737.00;;;11.00
11849;BMP180;5983;49.966;8.052;2022-12-29T09:10:34;99739.00;;;10.90
11849;BMP180;5983;49.966;8.052;2022-12-29T09:13:01;99739.00;;;10.90
11849;BMP180;5983;49.966;8.052;2022-12-29T09:15:30;99737.00;;;10.90
11849;BMP180;5983;49.966;8.052;2022-12-29T09:17:56;99738.00;;;10.90
11849;BMP180;5983;49.966;8.052;2022-12-29T09:20:23;99746.00;;;10.90
11849;BMP180;5983;49.966;8.052;2022-12-29T09:22:50;99757.00;;;10.90
11849;BMP180;5983;49.966;8.052;2022-12-29T09:25:17;99759.00;;;10.90
11849;BMP180;5983;49.966;8.052;2022-12-29T09:27:44;99746.00;;;10.90
11849;BMP180;5983;49.966;8.052;2022-12-29T09:30:13;99763.00;;;10.90
11849;BMP180;5983;49.966;8.052;2022-12-29T09:32:42;99758.00;;;10.90
11849;BMP180;5983;49.966;8.052;2022-12-29T09:35:09;99762.00;;;10.90
11849;BMP180;5983;49.966;8.052;2022-12-29T09:37:36;99758.00;;;10.90
11849;BMP180;5983;49.966;8.052;2022-12-29T09:40:05;99768.00;;;10.90
11849;BMP180;5983;49.966;8.052;2022-12-29T09:42:39;99774.00;;;10.90
11849;BMP180;5983;49.966;8.052;2022-12-29T09:45:16;99768.00;;;10.90
11849;BMP180;5983;49.966;8.052;2022-12-29T09:47:46;99771.00;;;10.90
11849;BMP180;5983;49.966;8.052;2022-12-29T09:50:22;99767.00;;;10.90
11849;BMP180;5983;49.966;8.052;2022-12-29T09:52:56;99776.00;;;10.90
11849;BMP180;5983;49.966;8.052;2022-12-29T09:55:36;99759.00;;;10.90
11849;BMP180;5983;49.966;8.052;2022-12-29T09:58:13;99763.00;;;10.90
11849;BMP180;5983;49.966;8.052;2022-12-29T10:00:48;99763.00;;;10.90
11849;BMP180;5983;49.966;8.052;2022-12-29T10:03:21;99760.00;;;10.90
11849;BMP180;5983;49.966;8.052;2022-12-29T10:05:58;99770.00;;;11.00
11849;BMP180;5983;49.966;8.052;2022-12-29T10:08:37;99764.00;;;11.00
11849;BMP180;5983;49.966;8.052;2022-12-29T10:11:19;99759.00;;;11.00
11849;BMP180;5983;49.966;8.052;2022-12-29T10:14:08;99768.00;;;11.10
11849;BMP180;5983;49.966;8.052;2022-12-29T10:16:49;99774.00;;;11.10
11849;BMP180;5983;49.966;8.052;2022-12-29T10:19:53;99782.00;;;11.10
11849;BMP180;5983;49.966;8.052;2022-12-29T10:22:41;99768.00;;;11.20
11849;BMP180;5983;49.966;8.052;2022-12-29T10:25:16;99764.00;;;11.20
11849;BMP180;5983;49.966;8.052;2022-12-29T10:27:48;99770.00;;;11.30
11849;BMP180;5983;49.966;8.052;2022-12-29T10:30:16;99781.00;;;11.40
11849;BMP180;5983;49.966;8.052;2022-12-29T10:32:51;99786.00;;;11.50
11849;BMP180;5983;49.966;8.052;2022-12-29T10:35:23;99794.00;;;11.60
11849;BMP180;5983;49.966;8.052;2022-12-29T10:37:59;99792.00;;;12.00
11849;BMP180;5983;49.966;8.052;2022-12-29T10:40:33;99783.00;;;12.60
11849;BMP180;5983;49.966;8.052;2022-12-29T10:43:22;99788.00;;;13.80
11849;BMP180;5983;49.966;8.052;2022-12-29T10:45:52;99793.00;;;14.80
11849;BMP180;5983;49.966;8.052;2022-12-29T10:48:24;99784.00;;;15.50
11849;BMP180;5983;49.966;8.052;2022-12-29T10:50:58;99780.00;;;16.60
11849;BMP180;5983;49.966;8.052;2022-12-29T10:53:32;99783.00;;;17.80
11849;BMP180;5983;49.966;8.052;2022-12-29T10:56:09;99788.00;;;18.50
11849;BMP180;5983;49.966;8.052;2022-12-29T10:58:40;99802.00;;;18.50
11849;BMP180;5983;49.966;8.052;2022-12-29T11:01:11;99800.00;;;18.40
11849;BMP180;5983;49.966;8.052;2022-12-29T11:03:54;99807.00;;;18.00
11849;BMP180;5983;49.966;8.052;2022-12-29T11:06:27;99820.00;;;17.20
11849;BMP180;5983;49.966;8.052;2022-12-29T11:08:59;99823.00;;;16.40
11849;BMP180;5983;49.966;8.052;2022-12-29T11:11:35;99820.00;;;15.80
11849;BMP180;5983;49.966;8.052;2022-12-29T11:14:12;99817.00;;;15.50
11849;BMP180;5983;49.966;8.052;2022-12-29T11:16:40;99797.00;;;16.30
11849;BMP180;5983;49.966;8.052;2022-12-29T11:19:21;99818.00;;;18.10
11849;BMP180;5983;49.966;8.052;2022-12-29T11:21:51;99813.00;;;18.40
11849;BMP180;5983;49.966;8.052;2022-12-29T11:24:22;99808.00;;;18.40
11849;BMP180;5983;49.966;8.052;2022-12-29T11:26:51;99827.00;;;17.70
11849;BMP180;5983;49.966;8.052;2022-12-29T11:29:26;99823.00;;;17.00
11849;BMP180;5983;49.966;8.052;2022-12-29T11:31:56;99832.00;;;16.50
11849;BMP180;5983;49.966;8.052;2022-12-29T11:34:26;99828.00;;;16.10
11849;BMP180;5983;49.966;8.052;2022-12-29T11:37:04;99824.00;;;16.10
11849;BMP180;5983;49.966;8.052;2022-12-29T11:39:37;99812.00;;;16.10
11849;BMP180;5983;49.966;8.052;2022-12-29T11:42:13;99826.00;;;15.70
11849;BMP180;5983;49.966;8.052;2022-12-29T11:44:45;99823.00;;;15.50
11849;BMP180;5983;49.966;8.052;2022-12-29T11:47:24;99811.00;;;15.40
11849;BMP180;5983;49.966;8.052;2022-12-29T11:49:56;99823.00;;;15.40
11849;BMP180;5983;49.966;8.052;2022-12-29T11:52:29;99823.00;;;15.10
11849;BMP180;5983;49.966;8.052;2022-12-29T11:55:02;99817.00;;;14.80
11849;BMP180;5983;49.966;8.052;2022-12-29T11:57:34;99812.00;;;14.50
11849;BMP180;5983;49.966;8.052;2022-12-29T12:00:14;99826.00;;;14.30
11849;BMP180;5983;49.966;8.052;2022-12-29T12:02:49;99805.00;;;14.10
11849;BMP180;5983;49.966;8.052;2022-12-29T12:05:30;99819.00;;;13.90
11849;BMP180;5983;49.966;8.052;2022-12-29T12:08:08;99812.00;;;13.60
11849;BMP180;5983;49.966;8.052;2022-12-29T12:10:43;99803.00;;;13.50
11849;BMP180;5983;49.966;8.052;2022-12-29T12:13:21;99818.00;;;13.30
11849;BMP180;5983;49.966;8.052;2022-12-29T12:15:55;99813.00;;;13.20
11849;BMP180;5983;49.966;8.052;2022-12-29T12:18:39;99802.00;;;13.00
11849;BMP180;5983;49.966;8.052;2022-12-29T12:21:20;99806.00;;;12.90
11849;BMP180;5983;49.966;8.052;2022-12-29T12:24:11;99790.00;;;12.90
11849;BMP180;5983;49.966;8.052;2022-12-29T12:26:55;99801.00;;;12.80
11849;BMP180;5983;49.966;8.052;2022-12-29T12:29:34;99811.00;;;12.80
11849;BMP180;5983;49.966;8.052;2022-12-29T12:32:11;99789.00;;;12.70
11849;BMP180;5983;49.966;8.052;2022-12-29T12:34:41;99801.00;;;12.60
11849;BMP180;5983;49.966;8.052;2022-12-29T12:37:37;99806.00;;;12.70
11849;BMP180;5983;49.966;8.052;2022-12-29T12:40:48;99812.00;;;12.80
11849;BMP180;5983;49.966;8.052;2022-12-29T12:43:37;99796.00;;;13.00
11849;BMP180;5983;49.966;8.052;2022-12-29T12:46:23;99798.00;;;13.20
11849;BMP180;5983;49.966;8.052;2022-12-29T12:49:20;99804.00;;;13.40
11849;BMP180;5983;49.966;8.052;2022-12-29T12:52:01;99789.00;;;13.50
11849;BMP180;5983;49.966;8.052;2022-12-29T12:54:59;99798.00;;;13.50
11849;BMP180;5983;49.966;8.052;2022-12-29T12:57:49;99800.00;;;13.40
11849;BMP180;5983;49.966;8.052;2022-12-29T13:00:21;99801.00;;;13.40
11849;BMP180;5983;49.966;8.052;2022-12-29T13:03:10;99784.00;;;13.40
11849;BMP180;5983;49.966;8.052;2022-12-29T13:05:57;99785.00;;;13.30
11849;BMP180;5983;49.966;8.052;2022-12-29T13:12:03;99778.00;;;13.40
11849;BMP180;5983;49.966;8.052;2022-12-29T13:14:52;99785.00;;;13.70
11849;BMP180;5983;49.966;8.052;2022-12-29T13:17:27;99774.00;;;14.10
11849;BMP180;5983;49.966;8.052;2022-12-29T13:20:07;99792.00;;;14.20
11849;BMP180;5983;49.966;8.052;2022-12-29T13:22:47;99797.00;;;14.00
11849;BMP180;5983;49.966;8.052;2022-12-29T13:25:37;99817.00;;;13.80
11849;BMP180;5983;49.966;8.052;2022-12-29T13:28:16;99806.00;;;13.70
11849;BMP180;5983;49.966;8.052;2022-12-29T13:30:58;99800.00;;;13.50
11849;BMP180;5983;49.966;8.052;2022-12-29T13:33:39;99797.00;;;13.40
11849;BMP180;5983;49.966;8.052;2022-12-29T13:36:18;99788.00;;;13.40
11849;BMP180;5983;49.966;8.052;2022-12-29T13:38:53;99792.00;;;13.30
11849;BMP180;5983;49.966;8.052;2022-12-29T13:41:33;99801.00;;;13.20
11849;BMP180;5983;49.966;8.052;2022-12-29T13:44:04;99794.00;;;13.10
11849;BMP180;5983;49.966;8.052;2022-12-29T13:46:39;99791.00;;;13.10
11849;BMP180;5983;49.966;8.052;2022-12-29T13:49:14;99790.00;;;13.10
11849;BMP180;5983;49.966;8.052;2022-12-29T13:51:47;99802.00;;;13.20
11849;BMP180;5983;49.966;8.052;2022-12-29T13:54:30;99798.00;;;13.80
11849;BMP180;5983;49.966;8.052;2022-12-29T13:57:09;99799.00;;;14.30
11849;BMP180;5983;49.966;8.052;2022-12-29T13:59:46;99818.00;;;14.50
11849;BMP180;5983;49.966;8.052;2022-12-29T14:02:33;99812.00;;;14.40
11849;BMP180;5983;49.966;8.052;2022-12-29T14:05:26;99808.00;;;14.20
11849;BMP180;5983;49.966;8.052;2022-12-29T14:07:58;99811.00;;;14.00
11849;BMP180;5983;49.966;8.052;2022-12-29T14:10:32;99810.00;;;13.90
11849;BMP180;5983;49.966;8.052;2022-12-29T14:13:05;99823.00;;;13.70
11849;BMP180;5983;49.966;8.052;2022-12-29T14:15:33;99839.00;;;13.50
11849;BMP180;5983;49.966;8.052;2022-12-29T14:18:16;99837.00;;;13.30
11849;BMP180;5983;49.966;8.052;2022-12-29T14:20:54;99840.00;;;13.20
11849;BMP180;5983;49.966;8.052;2022-12-29T14:23:37;99847.00;;;13.00
11849;BMP180;5983;49.966;8.052;2022-12-29T14:26:18;99836.00;;;12.90
11849;BMP180;5983;49.966;8.052;2022-12-29T14:31:58;99835.00;;;12.70
11849;BMP180;5983;49.966;8.052;2022-12-29T14:34:38;99849.00;;;12.60
11849;BMP180;5983;49.966;8.052;2022-12-29T14:37:24;99842.00;;;12.60
11849;BMP180;5983;49.966;8.052;2022-12-29T14:40:06;99826.00;;;12.60
11849;BMP180;5983;49.966;8.052;2022-12-29T14:42:33;99827.00;;;12.60
11849;BMP180;5983;49.966;8.052;2022-12-29T14:45:06;99820.00;;;12.70
11849;BMP180;5983;49.966;8.052;2022-12-29T14:47:36;99825.00;;;12.70
11849;BMP180;5983;49.966;8.052;2022-12-29T14:50:11;99821.00;;;12.60
11849;BMP180;5983;49.966;8.052;2022-12-29T14:52:47;99832.00;;;12.50
11849;BMP180;5983;49.966;8.052;2022-12-29T14:55:37;99828.00;;;12.50
11849;BMP180;5983;49.966;8.052;2022-12-29T14:58:12;99828.00;;;12.40
11849;BMP180;5983;49.966;8.052;2022-12-29T15:00:42;99856.00;;;12.40
11849;BMP180;5983;49.966;8.052;2022-12-29T15:03:18;99858.00;;;12.30
11849;BMP180;5983;49.966;8.052;2022-12-29T15:05:52;99861.00;;;12.30